createdAt,value
2019-02-18T06:25:19.039Z,68.59
2019-02-18T06:26:19.007Z,68.70
2019-02-18T06:27:18.996Z,68.80
2019-02-18T06:28:19.004Z,68.73
2019-02-18T06:29:18.974Z,69.11
2019-02-18T06:30:18.964Z,69.11
2019-02-18T06:31:18.963Z,69.53
2019-02-18T06:32:18.947Z,69.87
2019-02-18T06:33:18.951Z,69.94
2019-02-18T06:34:18.921Z,69.63
2019-02-18T06:35:25.957Z,69.84
2019-02-18T06:36:18.905Z,68.38
2019-02-18T06:37:18.896Z,68.59
2019-02-18T06:38:18.904Z,69.01
2019-02-18T06:39:18.911Z,68.90
2019-02-18T06:40:18.874Z,68.59
2019-02-18T06:41:18.863Z,68.70
2019-02-18T06:42:18.839Z,68.87
2019-02-18T06:43:18.862Z,68.18
2019-02-18T06:44:18.863Z,68.38
2019-02-18T06:45:18.806Z,68.59
2019-02-18T06:46:18.798Z,68.59
2019-02-18T06:47:18.791Z,68.18
2019-02-18T06:48:18.774Z,67.86
2019-02-18T06:49:18.789Z,68.18
2019-02-18T06:50:18.752Z,67.97
2019-02-18T06:51:18.749Z,67.97
2019-02-18T06:52:18.734Z,67.76
2019-02-18T06:53:18.723Z,68.18
2019-02-18T06:54:18.730Z,68.07
2019-02-18T06:55:18.700Z,68.49
2019-02-18T06:56:18.694Z,68.59
2019-02-18T06:57:18.713Z,68.59
2019-02-18T06:58:18.669Z,69.11
2019-02-18T06:59:18.685Z,68.49
2019-02-18T07:00:18.647Z,68.49
2019-02-18T07:01:18.650Z,68.38
2019-02-18T07:02:18.626Z,68.90
2019-02-18T07:03:18.734Z,68.38
2019-02-18T07:04:18.623Z,69.42
2019-02-18T07:05:18.594Z,68.38
2019-02-18T07:06:18.599Z,68.70
2019-02-18T07:07:18.583Z,68.70
2019-02-18T07:08:18.565Z,68.80
2019-02-18T07:09:18.590Z,68.73
2019-02-18T07:10:18.543Z,68.80
2019-02-18T07:11:18.543Z,68.90
2019-02-18T07:12:19.275Z,69.21
2019-02-18T07:13:18.516Z,68.18
2019-02-18T07:14:18.520Z,68.38
2019-02-18T07:15:18.491Z,68.70
2019-02-18T07:16:18.486Z,68.80
2019-02-18T07:17:18.476Z,68.70
2019-02-18T07:18:18.467Z,68.80
2019-02-18T07:19:18.471Z,68.70
2019-02-18T07:20:18.439Z,68.18
2019-02-18T07:21:18.433Z,68.38
2019-02-18T07:22:18.635Z,68.38
2019-02-18T07:23:18.405Z,67.73
2019-02-18T07:24:18.411Z,67.83
2019-02-18T07:25:18.411Z,67.83
2019-02-18T07:26:18.378Z,67.94
2019-02-18T07:27:18.365Z,67.73
2019-02-18T07:28:18.354Z,67.52
2019-02-18T07:29:18.343Z,67.52
2019-02-18T07:30:18.351Z,67.83
2019-02-18T07:31:18.329Z,67.60
2019-02-18T07:32:18.313Z,67.91
2019-02-18T07:33:18.304Z,67.60
2019-02-18T07:34:18.299Z,66.87
2019-02-18T07:35:18.300Z,67.08
2019-02-18T07:36:18.271Z,67.39
2019-02-18T07:37:18.304Z,67.08
2019-02-18T07:38:18.251Z,66.87
2019-02-18T07:39:18.243Z,66.87
2019-02-18T07:40:18.248Z,66.66
2019-02-18T07:41:18.218Z,66.56
2019-02-18T07:42:18.212Z,66.22
2019-02-18T07:43:18.214Z,65.91
2019-02-18T07:44:18.189Z,66.32
2019-02-18T07:45:18.194Z,66.12
2019-02-18T07:46:18.164Z,66.53
2019-02-18T07:47:18.170Z,66.22
2019-02-18T07:48:18.157Z,66.12
2019-02-18T07:49:18.135Z,66.32
2019-02-18T07:50:20.987Z,65.60
2019-02-18T07:51:18.114Z,65.81
2019-02-18T07:52:18.102Z,65.57
2019-02-18T07:53:18.092Z,65.57
2019-02-18T07:54:18.087Z,65.26
2019-02-18T07:55:18.100Z,65.57
2019-02-18T07:56:18.061Z,65.26
2019-02-18T07:57:18.051Z,65.33
2019-02-18T07:58:18.056Z,64.61
2019-02-18T07:59:18.029Z,64.51
2019-02-18T08:00:18.027Z,64.09
2019-02-18T08:01:18.025Z,64.71
2019-02-18T08:02:18.011Z,64.51
2019-02-18T08:03:17.992Z,64.37
2019-02-18T08:04:17.985Z,63.85
2019-02-18T08:05:17.970Z,63.85
2019-02-18T08:06:17.986Z,63.93
2019-02-18T08:07:17.982Z,64.14
2019-02-18T08:08:17.939Z,63.72
2019-02-18T08:09:17.927Z,63.51
2019-02-18T08:10:17.916Z,63.28
2019-02-18T08:11:17.925Z,63.18
2019-02-18T08:12:17.904Z,62.84
2019-02-18T08:13:17.888Z,62.32
2019-02-18T08:14:17.885Z,61.70
2019-02-18T08:15:17.867Z,61.26
2019-02-18T08:16:17.896Z,60.93
2019-02-18T08:17:17.846Z,60.41
2019-02-18T08:18:17.837Z,60.17
2019-02-18T08:19:17.837Z,59.94
2019-02-18T08:20:17.824Z,59.12
2019-02-18T08:21:17.827Z,58.68
2019-02-18T08:22:17.795Z,58.37
2019-02-18T08:23:17.783Z,57.82
2019-02-18T08:24:17.777Z,57.50
2019-02-18T08:25:17.763Z,57.39
2019-02-18T08:26:17.776Z,56.36
2019-02-18T08:27:17.742Z,56.64
2019-02-18T08:28:17.732Z,56.44
2019-02-18T08:29:17.827Z,56.49
2019-02-18T08:30:17.708Z,55.28
2019-02-18T08:31:17.721Z,55.77
2019-02-18T08:32:17.704Z,54.72
2019-02-18T08:33:17.680Z,54.82
2019-02-18T08:34:17.688Z,54.30
2019-02-18T08:35:17.675Z,54.49
2019-02-18T08:36:17.673Z,54.28
2019-02-18T08:37:17.634Z,54.66
2019-02-18T08:38:17.646Z,53.64
2019-02-18T08:39:17.619Z,53.41
2019-02-18T08:40:22.346Z,52.39
2019-02-18T08:41:18.611Z,52.49
2019-02-18T08:42:17.581Z,52.18
2019-02-18T08:43:17.586Z,52.36
2019-02-18T08:44:17.568Z,52.03
2019-02-18T08:45:17.548Z,51.70
2019-02-18T08:46:17.626Z,50.16
2019-02-18T08:47:17.528Z,50.85
2019-02-18T08:48:17.519Z,50.52
2019-02-18T08:49:17.511Z,49.30
2019-02-18T08:50:17.502Z,50.22
2019-02-18T08:51:17.515Z,50.12
2019-02-18T08:52:17.478Z,48.66
2019-02-18T08:53:17.463Z,48.84
2019-02-18T08:54:17.463Z,48.61
2019-02-18T08:55:17.439Z,47.92
2019-02-18T08:56:17.431Z,47.80
2019-02-18T08:57:17.433Z,48.51
2019-02-18T08:58:17.410Z,47.49
2019-02-18T08:59:17.402Z,47.82
2019-02-18T09:00:17.390Z,47.80
2019-02-18T09:01:17.380Z,47.08
2019-02-18T09:02:17.391Z,47.37
2019-02-18T09:03:17.353Z,46.96
2019-02-18T09:04:17.353Z,47.34
2019-02-18T09:05:17.397Z,46.92
2019-02-18T09:06:17.315Z,46.59
2019-02-18T09:07:17.335Z,45.26
2019-02-18T09:08:17.296Z,45.54
2019-02-18T09:09:17.296Z,44.32
2019-02-18T09:10:17.282Z,44.63
2019-02-18T09:11:17.282Z,44.53
2019-02-18T09:12:17.254Z,45.45
2019-02-18T09:13:17.257Z,44.22
2019-02-18T09:14:17.232Z,45.63
2019-02-18T09:15:17.232Z,44.73
2019-02-18T09:16:17.211Z,44.92
2019-02-18T09:17:17.216Z,45.22
2019-02-18T09:18:17.190Z,44.38
2019-02-18T09:19:17.179Z,44.61
2019-02-18T09:20:17.168Z,44.49
2019-02-18T09:21:17.155Z,44.18
2019-02-18T09:22:17.176Z,44.10
2019-02-18T09:23:17.131Z,44.08
2019-02-18T09:24:17.124Z,44.49
2019-02-18T09:25:17.191Z,43.98
2019-02-18T09:26:17.113Z,44.08
2019-02-18T09:27:17.242Z,44.28
2019-02-18T09:28:17.170Z,43.96
2019-02-18T09:29:17.068Z,43.43
2019-02-18T09:30:17.059Z,42.82
2019-02-18T09:31:17.055Z,43.10
2019-02-18T09:32:17.053Z,42.92
2019-02-18T09:33:17.044Z,43.30
2019-02-18T09:34:17.063Z,42.66
2019-02-18T09:35:17.003Z,42.55
2019-02-18T09:36:16.999Z,42.02
2019-02-18T09:37:16.993Z,41.03
2019-02-18T09:38:24.518Z,41.94
2019-02-18T09:39:17.958Z,41.42
2019-02-18T09:40:16.950Z,41.30
2019-02-18T09:41:16.938Z,40.06
2019-02-18T09:42:16.931Z,40.47
2019-02-18T09:43:16.948Z,40.04
2019-02-18T09:44:16.909Z,40.24
2019-02-18T09:45:16.898Z,40.04
2019-02-18T09:46:16.906Z,39.73
2019-02-18T09:47:16.887Z,40.30
2019-02-18T09:48:16.884Z,40.99
2019-02-18T09:49:16.852Z,40.59
2019-02-18T09:50:16.853Z,40.53
2019-02-18T09:51:16.834Z,39.68
2019-02-18T09:52:16.833Z,38.35
2019-02-18T09:53:16.826Z,38.06
2019-02-18T09:54:16.799Z,38.46
2019-02-18T09:55:16.790Z,38.24
2019-02-18T09:56:16.793Z,38.35
2019-02-18T09:57:16.773Z,37.68
2019-02-18T09:58:16.787Z,37.48
2019-02-18T09:59:16.748Z,36.98
2019-02-18T10:00:16.737Z,37.16
2019-02-18T10:01:16.740Z,36.72
2019-02-18T10:02:16.716Z,35.85
2019-02-18T10:03:16.720Z,36.15
2019-02-18T10:04:16.691Z,36.22
2019-02-18T10:05:16.681Z,36.34
2019-02-18T10:06:16.680Z,35.86
2019-02-18T10:07:16.660Z,37.30
2019-02-18T10:08:16.669Z,37.59
2019-02-18T10:09:16.638Z,37.45
2019-02-18T10:10:16.636Z,36.24
2019-02-18T10:11:16.621Z,36.81
2019-02-18T10:12:18.723Z,35.88
2019-02-18T10:13:16.621Z,35.26
2019-02-18T10:14:16.588Z,35.48
2019-02-18T10:15:16.573Z,34.69
2019-02-18T10:16:16.564Z,35.58
2019-02-18T10:17:16.555Z,35.50
2019-02-18T10:18:16.570Z,36.02
2019-02-18T10:19:16.530Z,36.40
2019-02-18T10:20:16.525Z,35.88
2019-02-18T10:21:16.511Z,35.95
2019-02-18T10:22:16.505Z,34.81
2019-02-18T10:23:16.526Z,34.12
2019-02-18T10:24:16.493Z,34.42
2019-02-18T10:25:16.469Z,34.86
2019-02-18T10:26:16.466Z,35.48
2019-02-18T10:27:16.451Z,34.89
2019-02-18T10:28:16.436Z,35.72
2019-02-18T10:29:16.443Z,36.02
2019-02-18T10:30:16.415Z,35.52
2019-02-18T10:31:16.419Z,36.12
2019-02-18T10:32:16.399Z,35.70
2019-02-18T10:33:16.388Z,35.06
2019-02-18T10:34:16.396Z,35.58
2019-02-18T10:35:16.366Z,35.41
2019-02-18T10:36:16.353Z,35.28
2019-02-18T10:37:16.358Z,35.16
2019-02-18T10:38:16.331Z,34.88
2019-02-18T10:39:16.343Z,35.16
2019-02-18T10:40:16.319Z,34.74
2019-02-18T10:41:16.303Z,33.91
2019-02-18T10:42:16.287Z,33.65
2019-02-18T10:43:16.298Z,33.40
2019-02-18T10:44:16.299Z,31.68
2019-02-18T10:45:16.259Z,32.17
2019-02-18T10:46:16.248Z,32.39
2019-02-18T10:47:16.240Z,31.29
2019-02-18T10:48:16.226Z,31.59
2019-02-18T10:49:19.770Z,32.50
2019-02-18T10:50:17.209Z,32.70
2019-02-18T10:51:16.194Z,32.37
2019-02-18T10:52:16.188Z,31.40
2019-02-18T10:53:16.175Z,31.59
2019-02-18T10:54:16.182Z,31.71
2019-02-18T10:55:16.174Z,32.53
2019-02-18T10:56:16.138Z,31.63
2019-02-18T10:57:16.128Z,33.69
2019-02-18T10:58:16.122Z,33.18
2019-02-18T10:59:16.136Z,33.79
2019-02-18T11:00:16.097Z,33.65
2019-02-18T11:01:16.099Z,32.12
2019-02-18T11:02:16.076Z,31.80
2019-02-18T11:03:16.068Z,32.29
2019-02-18T11:04:16.062Z,31.35
2019-02-18T11:05:16.066Z,31.14
2019-02-18T11:06:16.032Z,31.04
2019-02-18T11:07:16.033Z,30.82
2019-02-18T11:08:16.013Z,30.91
2019-02-18T11:09:16.000Z,31.02
2019-02-18T11:10:16.006Z,30.93
2019-02-18T11:11:17.254Z,30.93
2019-02-18T11:12:15.970Z,31.15
2019-02-18T11:13:15.955Z,31.96
2019-02-18T11:14:15.969Z,31.34
2019-02-18T11:15:15.964Z,31.11
2019-02-18T11:16:15.929Z,29.98
2019-02-18T11:17:15.918Z,29.84
2019-02-18T11:18:15.912Z,29.52
2019-02-18T11:19:17.570Z,29.39
2019-02-18T11:20:15.900Z,28.47
2019-02-18T11:21:15.892Z,27.25
2019-02-18T11:22:15.890Z,27.28
2019-02-18T11:23:15.851Z,27.76
2019-02-18T11:24:15.844Z,27.54
2019-02-18T11:25:15.849Z,27.54
2019-02-18T11:26:15.821Z,27.03
2019-02-18T11:27:15.810Z,25.72
2019-02-18T11:28:15.812Z,26.98
2019-02-18T11:29:15.793Z,27.36
2019-02-18T11:30:15.812Z,27.04
2019-02-18T11:31:15.771Z,26.15
2019-02-18T11:32:15.759Z,27.24
2019-02-18T11:33:15.747Z,26.09
2019-02-18T11:34:15.781Z,26.06
2019-02-18T11:35:15.732Z,25.27
2019-02-18T11:36:15.738Z,25.27
2019-02-18T11:37:15.706Z,25.49
2019-02-18T11:38:15.697Z,25.38
2019-02-18T11:39:15.690Z,25.89
2019-02-18T11:40:15.685Z,25.79
2019-02-18T11:41:15.723Z,25.98
2019-02-18T11:42:15.653Z,25.77
2019-02-18T11:43:15.647Z,26.02
2019-02-18T11:44:15.637Z,25.95
2019-02-18T11:45:15.625Z,26.98
2019-02-18T11:46:15.644Z,27.92
2019-02-18T11:47:15.604Z,29.38
2019-02-18T11:48:15.593Z,30.71
2019-02-18T11:49:15.597Z,31.56
2019-02-18T11:50:15.571Z,32.30
2019-02-18T11:51:15.580Z,33.45
2019-02-18T11:52:15.564Z,34.26
2019-02-18T11:53:15.621Z,34.76
2019-02-18T11:54:15.538Z,34.38
2019-02-18T11:55:15.519Z,34.20
2019-02-18T11:56:15.533Z,34.42
2019-02-18T11:57:15.499Z,33.47
2019-02-18T11:58:15.503Z,33.31
2019-02-18T11:59:24.107Z,32.37
2019-02-18T12:00:16.465Z,30.81
2019-02-18T12:01:15.474Z,30.35
2019-02-18T12:02:15.446Z,29.55
2019-02-18T12:03:15.432Z,30.18
2019-02-18T12:04:15.435Z,29.63
2019-02-18T12:05:15.420Z,28.70
2019-02-18T12:06:15.419Z,28.09
2019-02-18T12:07:15.395Z,27.58
2019-02-18T12:08:15.385Z,27.47
2019-02-18T12:09:17.761Z,27.58
2019-02-18T12:10:15.372Z,27.66
2019-02-18T12:11:15.368Z,27.76
2019-02-18T12:12:15.339Z,27.76
2019-02-18T12:13:15.331Z,27.15
2019-02-18T12:14:15.319Z,26.95
2019-02-18T12:15:15.309Z,27.36
2019-02-18T12:16:15.330Z,27.35
2019-02-18T12:17:20.574Z,27.06
2019-02-18T12:18:16.282Z,27.96
2019-02-18T12:19:15.266Z,27.76
2019-02-18T12:20:15.258Z,27.24
2019-02-18T12:21:15.264Z,27.24
2019-02-18T12:22:15.248Z,27.97
2019-02-18T12:23:15.229Z,28.47
2019-02-18T12:24:15.220Z,28.71
2019-02-18T12:25:15.214Z,28.92
2019-02-18T12:26:15.226Z,28.63
2019-02-18T12:27:15.187Z,28.23
2019-02-18T12:28:15.187Z,29.46
2019-02-18T12:29:15.165Z,30.43
2019-02-18T12:30:15.160Z,30.76
2019-02-18T12:31:15.149Z,31.76
2019-02-18T12:32:15.153Z,31.57
2019-02-18T12:33:15.125Z,31.80
2019-02-18T12:34:15.124Z,33.25
2019-02-18T12:35:15.108Z,33.39
2019-02-18T12:36:15.095Z,35.75
2019-02-18T12:37:15.097Z,35.06
2019-02-18T12:38:17.350Z,35.38
2019-02-18T12:39:15.063Z,36.81
2019-02-18T12:40:15.140Z,36.74
2019-02-18T12:41:15.049Z,37.45
2019-02-18T12:42:15.059Z,37.45
2019-02-18T12:43:15.021Z,37.16
2019-02-18T12:44:15.011Z,37.06
2019-02-18T12:45:14.998Z,37.37
2019-02-18T12:46:16.035Z,37.48
2019-02-18T12:47:15.011Z,38.09
2019-02-18T12:48:14.966Z,38.21
2019-02-18T12:49:14.957Z,38.09
2019-02-18T12:50:14.952Z,38.37
2019-02-18T12:51:14.936Z,37.99
2019-02-18T12:52:14.942Z,38.68
2019-02-18T12:53:14.926Z,37.48
2019-02-18T12:54:14.903Z,38.09
2019-02-18T12:55:15.207Z,38.19
2019-02-18T12:56:14.881Z,37.68
2019-02-18T12:57:14.890Z,38.29
2019-02-18T12:58:14.859Z,37.48
2019-02-18T12:59:14.863Z,37.18
2019-02-18T13:00:14.956Z,37.89
2019-02-18T13:01:14.833Z,37.59
2019-02-18T13:02:14.853Z,37.48
2019-02-18T13:03:14.807Z,36.88
2019-02-18T13:04:14.795Z,37.18
2019-02-18T13:05:14.795Z,37.48
2019-02-18T13:06:14.781Z,37.30
2019-02-18T13:07:14.766Z,37.70
2019-02-18T13:08:14.773Z,38.11
2019-02-18T13:09:14.742Z,38.21
2019-02-18T13:10:14.732Z,37.50
2019-02-18T13:11:14.748Z,37.50
2019-02-18T13:12:14.708Z,37.81
2019-02-18T13:13:14.713Z,38.21
2019-02-18T13:14:14.685Z,37.70
2019-02-18T13:15:14.675Z,37.50
2019-02-18T13:16:14.668Z,38.41
2019-02-18T13:17:14.672Z,37.60
2019-02-18T13:18:14.667Z,37.50
2019-02-18T13:19:14.633Z,38.11
2019-02-18T13:20:14.623Z,38.01
2019-02-18T13:21:14.613Z,37.10
2019-02-18T13:22:14.604Z,37.50
2019-02-18T13:23:14.615Z,37.81
2019-02-18T13:24:14.595Z,37.60
2019-02-18T13:25:14.578Z,37.60
2019-02-18T13:26:14.562Z,37.50
2019-02-18T13:27:14.550Z,36.90
2019-02-18T13:28:14.562Z,37.30
2019-02-18T13:29:14.537Z,37.70
2019-02-18T13:30:14.532Z,37.81
2019-02-18T13:31:14.514Z,37.81
2019-02-18T13:32:14.544Z,38.21
2019-02-18T13:33:14.507Z,38.51
2019-02-18T13:34:14.480Z,38.01
2019-02-18T13:35:14.467Z,37.50
2019-02-18T13:36:14.468Z,37.60
2019-02-18T13:37:14.452Z,38.21
2019-02-18T13:38:14.459Z,38.41
2019-02-18T13:39:14.430Z,37.50
2019-02-18T13:40:14.413Z,37.70
2019-02-18T13:41:14.401Z,37.40
2019-02-18T13:42:14.408Z,37.70
2019-02-18T13:43:14.404Z,37.30
2019-02-18T13:44:14.372Z,37.70
2019-02-18T13:45:14.362Z,37.60
2019-02-18T13:46:14.348Z,37.62
2019-02-18T13:47:14.337Z,37.21
2019-02-18T13:48:14.361Z,37.60
2019-02-18T13:49:14.319Z,37.92
2019-02-18T13:50:14.308Z,37.82
2019-02-18T13:51:14.297Z,37.50
2019-02-18T13:52:14.286Z,37.70
2019-02-18T13:53:14.295Z,38.21
2019-02-18T13:54:14.293Z,38.71
2019-02-18T13:55:14.263Z,38.11
2019-02-18T13:56:14.243Z,38.31
2019-02-18T13:57:14.234Z,37.50
2019-02-18T13:58:14.239Z,37.20
2019-02-18T13:59:14.210Z,37.90
2019-02-18T14:00:14.216Z,37.42
2019-02-18T14:01:14.197Z,37.20
2019-02-18T14:02:14.184Z,37.20
2019-02-18T14:03:14.189Z,36.79
2019-02-18T14:04:14.159Z,36.81
2019-02-18T14:05:14.148Z,37.42
2019-02-18T14:06:14.164Z,37.12
2019-02-18T14:07:14.132Z,37.12
2019-02-18T14:08:14.133Z,37.42
2019-02-18T14:09:14.110Z,37.40
2019-02-18T14:10:14.094Z,38.13
2019-02-18T14:11:14.083Z,38.53
2019-02-18T14:12:16.045Z,38.23
2019-02-18T14:13:14.084Z,37.12
2019-02-18T14:14:14.054Z,37.42
2019-02-18T14:15:14.041Z,37.62
2019-02-18T14:16:14.040Z,37.32
2019-02-18T14:17:14.018Z,36.81
2019-02-18T14:18:14.041Z,35.30
2019-02-18T14:19:13.998Z,35.60
2019-02-18T14:20:14.273Z,35.60
2019-02-18T14:21:13.980Z,35.09
2019-02-18T14:22:13.966Z,35.70
2019-02-18T14:23:15.846Z,36.51
2019-02-18T14:24:13.950Z,36.91
2019-02-18T14:25:13.944Z,36.51
2019-02-18T14:26:13.926Z,36.41
2019-02-18T14:27:13.913Z,36.91
2019-02-18T14:28:13.921Z,37.62
2019-02-18T14:29:13.891Z,37.62
2019-02-18T14:30:13.882Z,37.23
2019-02-18T14:31:13.888Z,37.21
2019-02-18T14:32:13.860Z,37.92
2019-02-18T14:33:13.867Z,36.93
2019-02-18T14:34:13.839Z,36.22
2019-02-18T14:35:13.827Z,36.81
2019-02-18T14:36:13.823Z,35.92
2019-02-18T14:37:13.827Z,37.13
2019-02-18T14:38:13.815Z,36.41
2019-02-18T14:39:13.787Z,36.81
2019-02-18T14:40:13.776Z,36.41
2019-02-18T14:41:13.766Z,36.10
2019-02-18T14:42:13.761Z,36.81
2019-02-18T14:43:13.786Z,37.03
2019-02-18T14:44:13.741Z,35.31
2019-02-18T14:45:13.722Z,35.39
2019-02-18T14:46:13.713Z,35.09
2019-02-18T14:47:13.706Z,35.70
2019-02-18T14:48:13.699Z,35.39
2019-02-18T14:49:13.697Z,35.90
2019-02-18T14:50:13.669Z,35.09
2019-02-18T14:51:13.659Z,35.19
2019-02-18T14:52:13.646Z,35.70
2019-02-18T14:53:13.641Z,35.41
2019-02-18T14:54:13.659Z,35.51
2019-02-18T14:55:13.614Z,35.19
2019-02-18T14:56:13.605Z,35.50
2019-02-18T14:57:13.592Z,35.51
2019-02-18T14:58:13.581Z,35.39
2019-02-18T14:59:13.588Z,35.70
2019-02-18T15:00:13.578Z,33.49
2019-02-18T15:01:13.550Z,32.28
2019-02-18T15:02:13.538Z,31.97
2019-02-18T15:03:13.526Z,31.77
2019-02-18T15:04:13.534Z,32.38
2019-02-18T15:05:13.512Z,30.96
2019-02-18T15:06:13.516Z,31.28
2019-02-18T15:07:13.486Z,31.37
2019-02-18T15:08:13.477Z,31.48
2019-02-18T15:09:13.480Z,31.80
2019-02-18T15:10:13.453Z,31.28
2019-02-18T15:11:13.452Z,31.38
2019-02-18T15:12:13.441Z,32.81
2019-02-18T15:13:13.422Z,32.41
2019-02-18T15:14:13.425Z,32.10
2019-02-18T15:15:13.397Z,32.20
2019-02-18T15:16:13.388Z,31.90
2019-02-18T15:17:13.378Z,32.00
2019-02-18T15:18:13.370Z,32.10
2019-02-18T15:19:13.377Z,32.82
2019-02-18T15:20:13.348Z,32.53
2019-02-18T15:21:13.341Z,33.33
2019-02-18T15:22:13.324Z,33.64
2019-02-18T15:23:13.315Z,33.94
2019-02-18T15:24:13.332Z,33.94
2019-02-18T15:25:13.297Z,33.44
2019-02-18T15:26:13.280Z,34.45
2019-02-18T15:27:13.280Z,34.05
2019-02-18T15:28:13.258Z,34.45
2019-02-18T15:29:13.275Z,33.94
2019-02-18T15:30:13.277Z,34.14
2019-02-18T15:31:13.264Z,35.57
2019-02-18T15:32:13.220Z,35.17
2019-02-18T15:33:13.205Z,34.95
2019-02-18T15:34:13.312Z,35.17
2019-02-18T15:35:13.198Z,35.78
2019-02-18T15:36:13.186Z,35.07
2019-02-18T15:37:13.164Z,35.48
2019-02-18T15:38:13.153Z,35.78
2019-02-18T15:39:13.168Z,36.29
2019-02-18T15:40:13.137Z,35.99
2019-02-18T15:41:13.138Z,35.99
2019-02-18T15:42:13.118Z,36.80
2019-02-18T15:43:13.097Z,37.00
2019-02-18T15:44:13.087Z,35.99
2019-02-18T15:45:13.093Z,36.29
2019-02-18T15:46:13.064Z,36.91
2019-02-18T15:47:13.067Z,37.42
2019-02-18T15:48:13.055Z,37.22
2019-02-18T15:49:13.033Z,37.42
2019-02-18T15:50:13.041Z,37.22
2019-02-18T15:51:13.011Z,37.62
2019-02-18T15:52:13.001Z,37.73
2019-02-18T15:53:13.002Z,37.93
2019-02-18T15:54:12.988Z,38.34
2019-02-18T15:55:12.995Z,38.25
2019-02-18T15:56:12.957Z,38.05
2019-02-18T15:57:12.946Z,39.26
2019-02-18T15:58:12.935Z,38.66
2019-02-18T15:59:12.932Z,38.45
2019-02-18T16:00:12.944Z,39.57
2019-02-18T16:01:12.901Z,39.57
2019-02-18T16:02:12.894Z,40.09
2019-02-18T16:03:12.882Z,40.20
2019-02-18T16:04:12.870Z,39.79
2019-02-18T16:05:12.877Z,40.50
2019-02-18T16:06:12.936Z,40.00
2019-02-18T16:07:12.841Z,40.40
2019-02-18T16:08:12.837Z,40.30
2019-02-18T16:09:12.816Z,40.50
2019-02-18T16:10:12.822Z,40.81
2019-02-18T16:11:12.795Z,40.50
2019-02-18T16:12:12.802Z,40.09
2019-02-18T16:13:12.773Z,40.20
2019-02-18T16:14:12.766Z,41.11
2019-02-18T16:15:12.767Z,40.93
2019-02-18T16:16:12.741Z,40.91
2019-02-18T16:17:12.732Z,40.83
2019-02-18T16:18:12.728Z,41.13
2019-02-18T16:19:12.718Z,41.11
2019-02-18T16:20:12.719Z,41.44
2019-02-18T16:21:12.691Z,41.33
2019-02-18T16:22:12.677Z,41.44
2019-02-18T16:23:12.665Z,41.35
2019-02-18T16:24:19.732Z,41.15
2019-02-18T16:25:13.739Z,41.15
2019-02-18T16:26:12.635Z,42.05
2019-02-18T16:27:12.632Z,42.27
2019-02-18T16:28:12.615Z,41.66
2019-02-18T16:29:12.602Z,42.17
2019-02-18T16:30:12.592Z,42.68
2019-02-18T16:31:12.603Z,42.57
2019-02-18T16:32:12.572Z,42.57
2019-02-18T16:33:12.557Z,42.17
2019-02-18T16:34:12.559Z,42.37
2019-02-18T16:35:12.542Z,42.07
2019-02-18T16:36:12.545Z,41.96
2019-02-18T16:37:12.516Z,42.77
2019-02-18T16:38:12.503Z,42.68
2019-02-18T16:39:12.494Z,42.57
2019-02-18T16:40:12.487Z,43.38
2019-02-18T16:41:12.500Z,43.30
2019-02-18T16:42:12.465Z,43.08
2019-02-18T16:43:12.451Z,42.98
2019-02-18T16:44:12.448Z,43.29
2019-02-18T16:45:12.429Z,43.91
2019-02-18T16:46:12.437Z,43.51
2019-02-18T16:47:12.420Z,43.51
2019-02-18T16:48:12.397Z,43.41
2019-02-18T16:49:12.387Z,44.22
2019-02-18T16:50:12.380Z,44.22
2019-02-18T16:51:12.389Z,44.02
2019-02-18T16:52:12.611Z,44.45
2019-02-18T16:53:12.346Z,44.14
2019-02-18T16:54:12.351Z,44.14
2019-02-18T16:55:12.338Z,44.65
2019-02-18T16:56:12.336Z,44.14
2019-02-18T16:57:12.305Z,44.45
2019-02-18T16:58:12.291Z,44.45
2019-02-18T16:59:12.282Z,44.95
2019-02-18T17:00:12.313Z,44.75
2019-02-18T17:01:12.255Z,44.95
2019-02-18T17:02:12.263Z,44.75
2019-02-18T17:03:12.237Z,44.24
2019-02-18T17:04:12.225Z,44.45
2019-02-18T17:05:12.223Z,45.68
2019-02-18T17:06:12.215Z,45.38
2019-02-18T17:07:12.212Z,45.38
2019-02-18T17:08:12.181Z,45.38
2019-02-18T17:09:12.168Z,45.15
2019-02-18T17:10:12.161Z,45.79
2019-02-18T17:11:12.153Z,45.79
2019-02-18T17:12:12.174Z,45.68
2019-02-18T17:13:12.127Z,46.30
2019-02-18T17:14:12.115Z,46.30
2019-02-18T17:15:12.107Z,45.91
2019-02-18T17:16:12.096Z,46.11
2019-02-18T17:17:12.103Z,46.11
2019-02-18T17:18:12.075Z,46.32
2019-02-18T17:19:12.073Z,46.42
2019-02-18T17:20:12.054Z,46.52
2019-02-18T17:21:12.045Z,46.62
2019-02-18T17:22:12.049Z,46.22
2019-02-18T17:23:12.019Z,46.42
2019-02-18T17:24:12.017Z,46.95
2019-02-18T17:25:12.002Z,46.44
2019-02-18T17:26:11.983Z,46.64
2019-02-18T17:27:11.999Z,46.64
2019-02-18T17:28:11.966Z,47.05
2019-02-18T17:29:11.954Z,46.55
2019-02-18T17:30:11.946Z,46.85
2019-02-18T17:31:11.940Z,46.95
2019-02-18T17:32:11.934Z,46.87
2019-02-18T17:33:11.912Z,47.16
2019-02-18T17:34:11.895Z,47.38
2019-02-18T17:35:12.133Z,47.17
2019-02-18T17:36:11.890Z,47.16
2019-02-18T17:37:11.895Z,47.08
2019-02-18T17:38:11.851Z,46.97
2019-02-18T17:39:11.846Z,46.97
2019-02-18T17:40:11.837Z,46.87
2019-02-18T17:41:11.821Z,46.97
2019-02-18T17:42:11.808Z,47.08
2019-02-18T17:43:16.415Z,47.08
2019-02-18T17:44:19.816Z,47.17
2019-02-18T17:45:12.772Z,47.08
2019-02-18T17:46:11.780Z,47.17
2019-02-18T17:47:11.755Z,46.87
2019-02-18T17:48:11.763Z,46.97
2019-02-18T17:49:11.730Z,46.87
2019-02-18T17:50:11.719Z,47.08
2019-02-18T17:51:11.708Z,48.30
2019-02-18T17:52:11.717Z,47.99
2019-02-18T17:53:11.716Z,47.69
2019-02-18T17:54:11.682Z,47.69
2019-02-18T17:55:11.668Z,47.89
2019-02-18T17:56:11.655Z,47.69
2019-02-18T17:57:11.641Z,47.79
2019-02-18T17:58:11.661Z,47.71
2019-02-18T17:59:11.621Z,48.02
2019-02-18T18:00:11.610Z,48.52
2019-02-18T18:01:11.597Z,48.73
2019-02-18T18:02:11.585Z,48.63
2019-02-18T18:03:11.595Z,48.32
2019-02-18T18:04:11.565Z,48.42
2019-02-18T18:05:11.555Z,48.42
2019-02-18T18:06:11.560Z,48.63
2019-02-18T18:07:11.534Z,48.52
2019-02-18T18:08:11.536Z,48.63
2019-02-18T18:09:11.508Z,48.63
2019-02-18T18:10:11.504Z,48.32
2019-02-18T18:11:11.489Z,48.55
2019-02-18T18:12:11.476Z,48.32
2019-02-18T18:13:11.622Z,48.55
2019-02-18T18:14:11.458Z,49.37
2019-02-18T18:15:11.447Z,48.96
2019-02-18T18:16:11.434Z,48.85
2019-02-18T18:17:11.429Z,48.85
2019-02-18T18:18:11.411Z,48.75
2019-02-18T18:19:11.414Z,48.65
2019-02-18T18:20:11.409Z,48.85
2019-02-18T18:21:11.378Z,48.75
2019-02-18T18:22:11.376Z,48.75
2019-02-18T18:23:11.352Z,49.49
2019-02-18T18:24:11.359Z,49.77
2019-02-18T18:25:11.331Z,49.29
2019-02-18T18:26:11.321Z,49.87
2019-02-18T18:27:11.323Z,50.10
2019-02-18T18:28:11.300Z,49.29
2019-02-18T18:29:11.303Z,49.59
2019-02-18T18:30:11.275Z,49.29
2019-02-18T18:31:11.262Z,49.90
2019-02-18T18:32:11.254Z,50.31
2019-02-18T18:33:11.245Z,50.31
2019-02-18T18:34:11.269Z,50.20
2019-02-18T18:35:11.217Z,50.51
2019-02-18T18:36:11.211Z,50.23
2019-02-18T18:37:11.197Z,50.53
2019-02-18T18:38:11.186Z,51.04
2019-02-18T18:39:11.195Z,51.25
2019-02-18T18:40:11.187Z,51.96
2019-02-18T18:41:11.153Z,51.89
2019-02-18T18:42:11.142Z,52.50
2019-02-18T18:43:11.130Z,51.89
2019-02-18T18:44:11.137Z,52.39
2019-02-18T18:45:11.107Z,51.78
2019-02-18T18:46:11.100Z,52.39
2019-02-18T18:47:11.096Z,52.70
2019-02-18T18:48:11.078Z,52.62
2019-02-18T18:49:11.090Z,53.11
2019-02-18T18:50:11.085Z,52.93
2019-02-18T18:51:11.082Z,51.98
2019-02-18T18:52:11.033Z,52.22
2019-02-18T18:53:11.022Z,52.72
2019-02-18T18:54:11.046Z,52.42
2019-02-18T18:55:10.998Z,53.85
2019-02-18T18:56:10.998Z,52.83
2019-02-18T18:57:10.978Z,52.72
2019-02-18T18:58:10.966Z,54.16
2019-02-18T18:59:10.988Z,54.28
2019-02-18T19:00:10.964Z,54.69
2019-02-18T19:01:10.958Z,54.49
2019-02-18T19:02:10.920Z,54.08
2019-02-18T19:03:10.951Z,54.39
2019-02-18T19:04:10.941Z,54.31
2019-02-18T19:05:10.892Z,55.54
2019-02-18T19:06:10.875Z,54.92
2019-02-18T19:07:10.881Z,55.74
2019-02-18T19:08:10.868Z,56.28
2019-02-18T19:09:10.850Z,56.38
2019-02-18T19:10:10.853Z,56.48
2019-02-18T19:11:10.824Z,55.97
2019-02-18T19:12:10.842Z,55.79
2019-02-18T19:13:10.951Z,56.07
2019-02-18T19:14:10.799Z,56.10
2019-02-18T19:15:10.809Z,56.00
2019-02-18T19:16:10.782Z,56.28
2019-02-18T19:17:10.764Z,56.10